createdAt,value
2023-05-09T00:01:15.361Z,8.07
2023-05-09T00:03:42.217Z,8.01
2023-05-09T00:06:09.874Z,8.00
2023-05-09T00:08:36.790Z,8.01
2023-05-09T00:11:03.757Z,7.92
2023-05-09T00:13:30.339Z,7.94
2023-05-09T00:15:56.997Z,7.91
2023-05-09T00:18:27.130Z,7.79
2023-05-09T00:20:54.038Z,7.87
2023-05-09T00:23:20.826Z,7.89
2023-05-09T00:25:47.624Z,7.80
2023-05-09T00:28:14.345Z,7.87
2023-05-09T00:30:41.001Z,7.70
2023-05-09T00:33:07.708Z,7.63
2023-05-09T00:35:38.469Z,7.63
2023-05-09T00:38:08.193Z,7.57
2023-05-09T00:40:34.962Z,7.61
2023-05-09T00:43:01.613Z,7.57
2023-05-09T00:45:28.280Z,7.52
2023-05-09T00:47:55.885Z,7.57
2023-05-09T00:50:22.744Z,7.59
2023-05-09T00:52:50.433Z,7.61
2023-05-09T00:55:18.574Z,7.56
2023-05-09T00:57:48.330Z,7.50
2023-05-09T01:00:16.439Z,7.31
2023-05-09T01:02:53.254Z,7.43
2023-05-09T01:05:20.858Z,7.38
2023-05-09T01:08:03.284Z,7.36
2023-05-09T01:10:57.113Z,7.32
2023-05-09T01:13:44.594Z,7.35
2023-05-09T01:16:26.472Z,7.38
2023-05-09T01:19:08.063Z,7.39
2023-05-09T01:21:38.139Z,7.35
2023-05-09T01:24:19.905Z,7.50
2023-05-09T01:27:20.223Z,7.39
2023-05-09T01:30:00.115Z,7.39
2023-05-09T01:32:29.041Z,7.40
2023-05-09T01:35:02.157Z,7.29
2023-05-09T01:37:34.418Z,7.23
2023-05-09T01:40:06.889Z,7.25
2023-05-09T01:43:08.890Z,7.15
2023-05-09T01:45:37.467Z,7.18
2023-05-09T01:48:05.517Z,7.09
2023-05-09T01:50:36.038Z,7.13
2023-05-09T01:53:05.939Z,7.16
2023-05-09T01:55:35.613Z,7.18
2023-05-09T01:58:04.447Z,7.17
2023-05-09T02:00:34.712Z,7.19
2023-05-09T02:03:03.931Z,7.12
2023-05-09T02:05:32.579Z,7.18
2023-05-09T02:08:00.253Z,7.13
2023-05-09T02:10:31.203Z,7.13
2023-05-09T02:12:57.938Z,7.13
2023-05-09T02:15:30.248Z,7.24
2023-05-09T02:17:56.997Z,7.27
2023-05-09T02:20:26.685Z,7.17
2023-05-09T02:22:53.419Z,7.23
2023-05-09T02:25:20.332Z,7.26
2023-05-09T02:27:51.446Z,7.24
2023-05-09T02:30:21.685Z,7.29
2023-05-09T02:32:50.574Z,7.24
2023-05-09T02:35:18.424Z,7.19
2023-05-09T02:37:45.783Z,7.26
2023-05-09T02:40:14.747Z,7.24
2023-05-09T02:42:41.641Z,7.21
2023-05-09T02:45:08.812Z,7.25
2023-05-09T02:47:35.507Z,7.25
2023-05-09T02:50:02.445Z,7.26
2023-05-09T02:52:29.122Z,7.15
2023-05-09T02:54:55.822Z,7.23
2023-05-09T02:57:22.692Z,7.17
2023-05-09T02:59:50.546Z,7.13
2023-05-09T03:02:17.313Z,7.10
2023-05-09T03:04:44.126Z,7.09
2023-05-09T03:07:10.955Z,7.13
2023-05-09T03:09:39.285Z,7.06
2023-05-09T03:12:08.187Z,7.07
2023-05-09T03:14:34.864Z,7.12
2023-05-09T03:17:01.426Z,7.15
2023-05-09T03:19:28.122Z,7.14
2023-05-09T03:21:54.800Z,7.15
2023-05-09T03:24:22.014Z,7.16
2023-05-09T03:26:48.710Z,7.26
2023-05-09T03:29:18.031Z,7.22
2023-05-09T03:31:44.795Z,7.23
2023-05-09T03:34:12.030Z,7.32
2023-05-09T03:36:38.742Z,7.29
2023-05-09T03:39:05.410Z,7.35
2023-05-09T03:41:32.271Z,7.39
2023-05-09T03:43:59.011Z,7.47
2023-05-09T03:46:26.002Z,7.41
2023-05-09T03:48:52.846Z,7.51
2023-05-09T03:51:19.902Z,7.50
2023-05-09T03:53:53.598Z,7.64
2023-05-09T03:56:22.628Z,7.68
2023-05-09T03:58:49.597Z,7.80
2023-05-09T04:01:16.291Z,7.80
2023-05-09T04:03:43.203Z,7.91
2023-05-09T04:06:10.457Z,7.99
2023-05-09T04:08:37.225Z,7.99
2023-05-09T04:11:03.880Z,8.05
2023-05-09T04:13:30.652Z,8.12
2023-05-09T04:15:57.369Z,8.19
2023-05-09T04:18:24.157Z,8.31
2023-05-09T04:20:50.932Z,8.44
2023-05-09T04:23:17.704Z,8.44
2023-05-09T04:25:44.356Z,8.42
2023-05-09T04:28:11.144Z,8.59
2023-05-09T04:30:37.982Z,8.56
2023-05-09T04:33:07.345Z,8.80
2023-05-09T04:35:34.136Z,8.82
2023-05-09T04:38:00.889Z,8.99
2023-05-09T04:40:27.634Z,8.99
2023-05-09T04:42:54.724Z,9.08
2023-05-09T04:45:21.528Z,9.35
2023-05-09T04:47:48.140Z,9.42
2023-05-09T04:50:14.821Z,9.56
2023-05-09T04:52:41.650Z,9.69
2023-05-09T04:55:08.607Z,9.75
2023-05-09T04:57:35.316Z,9.84
2023-05-09T05:00:02.008Z,9.99
2023-05-09T05:02:28.697Z,10.07
2023-05-09T05:05:06.222Z,10.20
2023-05-09T05:07:37.987Z,10.31
2023-05-09T05:10:05.038Z,10.38
2023-05-09T05:12:31.829Z,10.46
2023-05-09T05:14:58.541Z,10.78
2023-05-09T05:17:25.583Z,11.06
2023-05-09T05:19:52.181Z,11.13
2023-05-09T05:22:18.802Z,11.64
2023-05-09T05:24:45.415Z,11.50
2023-05-09T05:27:14.464Z,11.64
2023-05-09T05:29:41.141Z,11.84
2023-05-09T05:32:07.761Z,12.18
2023-05-09T05:34:34.422Z,12.24
2023-05-09T05:37:01.059Z,12.41
2023-05-09T05:39:27.894Z,12.56
2023-05-09T05:41:54.574Z,12.80
2023-05-09T05:44:21.230Z,12.66
2023-05-09T05:46:48.105Z,12.95
2023-05-09T05:49:21.901Z,13.00
2023-05-09T05:51:48.668Z,13.04
2023-05-09T05:54:22.584Z,13.02
2023-05-09T05:56:49.239Z,13.23
2023-05-09T05:59:15.875Z,13.49
2023-05-09T06:01:42.513Z,13.37
2023-05-09T06:04:09.417Z,13.63
2023-05-09T06:06:36.327Z,13.68
2023-05-09T06:09:03.025Z,13.70
2023-05-09T06:11:29.823Z,13.39
2023-05-09T06:13:56.495Z,13.76
2023-05-09T06:16:23.264Z,13.78
2023-05-09T06:18:50.658Z,14.12
2023-05-09T06:21:17.819Z,13.95
2023-05-09T06:24:01.536Z,14.21
2023-05-09T06:26:31.298Z,14.55
2023-05-09T06:28:58.319Z,14.38
2023-05-09T06:31:25.915Z,14.51
2023-05-09T06:33:52.899Z,14.89
2023-05-09T06:36:19.898Z,14.97
2023-05-09T06:38:46.730Z,15.08
2023-05-09T06:41:13.443Z,14.73
2023-05-09T06:43:40.170Z,15.06
2023-05-09T06:46:07.238Z,15.17
2023-05-09T06:48:33.979Z,15.22
2023-05-09T06:51:00.734Z,15.81
2023-05-09T06:53:27.388Z,15.83
2023-05-09T06:55:54.031Z,15.51
2023-05-09T06:58:24.010Z,15.79
2023-05-09T07:00:50.748Z,15.94
2023-05-09T07:03:17.425Z,15.62
2023-05-09T07:05:44.220Z,15.36
2023-05-09T07:08:10.992Z,15.71
2023-05-09T07:10:38.990Z,15.51
2023-05-09T07:13:06.162Z,15.81
2023-05-09T07:15:41.525Z,15.80
2023-05-09T07:18:09.571Z,15.64
2023-05-09T07:20:36.546Z,15.58
2023-05-09T07:23:06.334Z,15.80
2023-05-09T07:25:34.082Z,15.76
2023-05-09T07:28:00.703Z,15.83
2023-05-09T07:30:27.380Z,15.80
2023-05-09T07:32:54.139Z,15.62
2023-05-09T07:35:20.921Z,15.69
2023-05-09T07:37:47.583Z,15.70
2023-05-09T07:40:14.815Z,16.40
2023-05-09T07:42:41.808Z,16.18
2023-05-09T07:45:08.874Z,16.71
2023-05-09T07:47:35.624Z,16.37
2023-05-09T07:50:02.443Z,16.28
2023-05-09T07:52:29.051Z,16.37
2023-05-09T07:54:55.703Z,16.43
2023-05-09T07:57:22.342Z,16.52
2023-05-09T07:59:49.003Z,16.29
2023-05-09T08:02:15.679Z,16.47
2023-05-09T08:04:42.425Z,16.36
2023-05-09T08:07:09.225Z,16.49
2023-05-09T08:09:35.966Z,16.35
2023-05-09T08:12:02.644Z,16.56
2023-05-09T08:14:29.639Z,16.98
2023-05-09T08:16:56.275Z,17.00
2023-05-09T08:19:23.069Z,17.00
2023-05-09T08:21:49.731Z,17.04
2023-05-09T08:24:16.360Z,17.23
2023-05-09T08:26:43.099Z,17.04
2023-05-09T08:29:09.812Z,17.30
2023-05-09T08:31:39.397Z,17.55
2023-05-09T08:34:06.081Z,17.86
2023-05-09T08:36:32.765Z,17.78
2023-05-09T08:38:59.445Z,17.64
2023-05-09T08:41:26.920Z,17.56
2023-05-09T08:43:54.616Z,17.74
2023-05-09T08:46:36.807Z,17.81
2023-05-09T08:49:05.927Z,17.47
2023-05-09T08:51:33.157Z,17.20
2023-05-09T08:54:00.372Z,17.07
2023-05-09T08:56:27.297Z,17.24
2023-05-09T08:58:57.085Z,17.56
2023-05-09T09:01:24.859Z,17.11
2023-05-09T09:03:52.061Z,16.99
2023-05-09T09:06:20.683Z,17.15
2023-05-09T09:08:49.192Z,17.41
2023-05-09T09:11:17.463Z,17.01
2023-05-09T09:13:48.464Z,17.44
2023-05-09T09:16:20.352Z,17.32
2023-05-09T09:18:47.224Z,17.72
2023-05-09T09:21:16.409Z,17.91
2023-05-09T09:23:44.564Z,18.16
2023-05-09T09:26:11.271Z,18.10
2023-05-09T09:28:37.901Z,17.98
2023-05-09T09:31:23.153Z,17.79
2023-05-09T09:33:50.126Z,17.78
2023-05-09T09:36:20.028Z,17.94
2023-05-09T09:38:46.834Z,18.10
2023-05-09T09:41:13.468Z,17.60
2023-05-09T09:43:45.657Z,17.98
2023-05-09T09:46:14.447Z,18.46
2023-05-09T09:48:46.493Z,18.03
2023-05-09T09:51:13.157Z,18.13
2023-05-09T09:53:46.604Z,18.48
2023-05-09T09:56:14.122Z,18.37
2023-05-09T09:58:40.972Z,18.52
2023-05-09T10:01:12.670Z,18.03
2023-05-09T10:03:44.583Z,17.72
2023-05-09T10:06:15.751Z,18.06
2023-05-09T10:08:45.333Z,18.20
2023-05-09T10:11:12.523Z,18.03
2023-05-09T10:13:39.150Z,17.82
2023-05-09T10:16:08.827Z,18.41
2023-05-09T10:18:36.290Z,18.12
2023-05-09T10:21:10.187Z,18.40
2023-05-09T10:23:38.503Z,17.90
2023-05-09T10:26:26.251Z,17.56
2023-05-09T10:28:55.924Z,17.85
2023-05-09T10:31:27.051Z,17.90
2023-05-09T10:33:58.080Z,17.72
2023-05-09T10:36:25.049Z,17.29
2023-05-09T10:38:54.394Z,16.99
2023-05-09T10:41:22.210Z,16.93
2023-05-09T10:43:49.428Z,16.76
2023-05-09T10:46:16.611Z,16.93
2023-05-09T10:48:47.759Z,17.07
2023-05-09T10:51:14.414Z,17.12
2023-05-09T10:53:41.906Z,17.19
2023-05-09T10:56:08.541Z,17.23
2023-05-09T10:58:35.830Z,17.01
2023-05-09T11:01:04.722Z,17.03
2023-05-09T11:03:54.287Z,16.80
2023-05-09T11:06:41.336Z,16.90
2023-05-09T11:09:37.578Z,17.19
2023-05-09T11:12:07.523Z,17.22
2023-05-09T11:14:50.475Z,17.38
2023-05-09T11:17:23.442Z,17.19
2023-05-09T11:19:50.180Z,17.20
2023-05-09T11:22:21.583Z,17.23
2023-05-09T11:24:53.234Z,17.21
2023-05-09T11:27:26.540Z,17.34
2023-05-09T11:29:58.600Z,17.25
2023-05-09T11:32:31.934Z,17.16
2023-05-09T11:35:09.392Z,17.08
2023-05-09T11:37:59.100Z,17.36
2023-05-09T11:40:27.262Z,17.29
2023-05-09T11:42:59.032Z,17.27
2023-05-09T11:45:29.223Z,17.01
2023-05-09T11:47:56.462Z,16.93
2023-05-09T11:50:23.774Z,16.94
2023-05-09T11:52:51.242Z,17.00
2023-05-09T11:55:19.963Z,16.92
2023-05-09T11:57:48.768Z,16.93
2023-05-09T12:00:19.749Z,16.96
2023-05-09T12:02:46.858Z,17.07
2023-05-09T12:05:15.746Z,17.11
2023-05-09T12:07:42.964Z,17.04
2023-05-09T12:10:11.267Z,16.99
2023-05-09T12:12:43.819Z,16.94
2023-05-09T12:15:11.412Z,16.94
2023-05-09T12:17:38.388Z,16.90
2023-05-09T12:20:05.700Z,16.82
2023-05-09T12:22:36.386Z,16.83
2023-05-09T12:25:13.152Z,16.84
2023-05-09T12:27:43.839Z,16.76
2023-05-09T12:30:12.092Z,16.71
2023-05-09T12:32:39.484Z,16.68
2023-05-09T12:35:10.787Z,16.64
2023-05-09T12:37:37.857Z,16.64
2023-05-09T12:40:11.571Z,16.62
2023-05-09T12:42:38.921Z,16.63
2023-05-09T12:45:08.688Z,16.67
2023-05-09T12:47:35.590Z,16.48
2023-05-09T12:50:03.877Z,16.57
2023-05-09T12:52:54.495Z,16.59
2023-05-09T12:55:31.874Z,16.56
2023-05-09T12:58:03.036Z,16.52
2023-05-09T13:00:42.053Z,16.44
2023-05-09T13:03:23.834Z,16.48
2023-05-09T13:06:01.139Z,16.55
2023-05-09T13:08:28.862Z,16.56
2023-05-09T13:11:08.023Z,16.51
2023-05-09T13:13:42.214Z,16.61
2023-05-09T13:19:02.270Z,16.49
2023-05-09T13:21:34.603Z,16.61
2023-05-09T13:24:01.638Z,16.63
2023-05-09T13:26:29.287Z,16.67
2023-05-09T13:28:57.350Z,16.66
2023-05-09T13:31:24.572Z,16.80
2023-05-09T13:33:52.786Z,16.79
2023-05-09T13:36:19.505Z,16.86
2023-05-09T13:38:46.123Z,16.83
2023-05-09T13:41:13.888Z,16.85
2023-05-09T13:43:40.561Z,16.86
2023-05-09T13:46:07.224Z,16.85
2023-05-09T13:48:36.940Z,16.86
2023-05-09T13:51:03.889Z,16.83
2023-05-09T13:53:30.621Z,16.86
2023-05-09T13:55:57.317Z,16.90
2023-05-09T13:58:24.206Z,16.87
2023-05-09T14:00:50.838Z,16.94
2023-05-09T14:03:17.556Z,16.89
2023-05-09T14:05:44.444Z,16.93
2023-05-09T14:08:11.133Z,16.94
2023-05-09T14:10:37.834Z,16.99
2023-05-09T14:13:04.495Z,17.01
2023-05-09T14:15:31.470Z,17.02
2023-05-09T14:17:58.237Z,17.02
2023-05-09T14:20:25.496Z,17.11
2023-05-09T14:22:52.202Z,17.14
2023-05-09T14:25:19.062Z,17.29
2023-05-09T14:27:45.743Z,17.28
2023-05-09T14:30:13.084Z,17.26
2023-05-09T14:32:40.015Z,17.21
2023-05-09T14:35:07.038Z,17.24
2023-05-09T14:37:33.761Z,17.14
2023-05-09T14:40:00.547Z,17.09
2023-05-09T14:42:27.372Z,17.06
2023-05-09T14:44:54.210Z,17.00
2023-05-09T14:47:21.111Z,16.95
2023-05-09T14:49:47.736Z,16.88
2023-05-09T14:52:16.924Z,16.84
2023-05-09T14:54:43.617Z,16.85
2023-05-09T14:57:10.415Z,16.84
2023-05-09T14:59:37.389Z,16.74
2023-05-09T15:02:04.091Z,16.75
2023-05-09T15:04:31.094Z,16.76
2023-05-09T15:06:58.010Z,16.76
2023-05-09T15:09:24.702Z,16.76
2023-05-09T15:11:51.495Z,16.77
2023-05-09T15:14:18.104Z,16.76
2023-05-09T15:16:44.908Z,16.82
2023-05-09T15:19:11.729Z,16.82
2023-05-09T15:21:40.175Z,16.80
2023-05-09T15:24:07.261Z,16.90
2023-05-09T15:26:34.089Z,16.81
2023-05-09T15:29:00.836Z,16.71
2023-05-09T15:31:32.202Z,16.59
2023-05-09T15:33:59.887Z,16.43
2023-05-09T15:36:28.776Z,16.50
2023-05-09T15:38:55.579Z,16.41
2023-05-09T15:41:25.371Z,16.39
2023-05-09T15:43:52.339Z,16.42
2023-05-09T15:46:19.258Z,16.39
2023-05-09T15:48:46.084Z,16.38
2023-05-09T15:51:12.832Z,16.38
2023-05-09T15:53:39.697Z,16.30
2023-05-09T15:56:07.701Z,16.36
2023-05-09T15:58:34.614Z,16.45
2023-05-09T16:01:04.430Z,16.40
2023-05-09T16:03:31.293Z,16.28
2023-05-09T16:05:58.742Z,16.17
2023-05-09T16:08:25.617Z,16.12
2023-05-09T16:10:52.347Z,16.05
2023-05-09T16:13:19.126Z,15.92
2023-05-09T16:15:46.084Z,15.91
2023-05-09T16:18:15.434Z,16.06
2023-05-09T16:20:42.142Z,16.15
2023-05-09T16:23:10.164Z,16.24
2023-05-09T16:25:36.898Z,16.15
2023-05-09T16:28:03.780Z,16.17
2023-05-09T16:30:30.491Z,16.23
2023-05-09T16:32:57.150Z,16.26
2023-05-09T16:35:23.843Z,16.27
2023-05-09T16:37:50.863Z,16.31
2023-05-09T16:40:18.793Z,16.24
2023-05-09T16:42:45.617Z,16.09
2023-05-09T16:45:12.323Z,16.01
2023-05-09T16:47:39.046Z,15.99
2023-05-09T16:50:09.390Z,15.91
2023-05-09T16:52:36.071Z,15.92
2023-05-09T16:55:02.825Z,15.83
2023-05-09T16:57:29.637Z,15.82
2023-05-09T16:59:56.511Z,15.76
2023-05-09T17:02:23.335Z,15.77
2023-05-09T17:04:50.305Z,15.76
2023-05-09T17:07:17.086Z,15.77
2023-05-09T17:09:43.775Z,15.74
2023-05-09T17:12:10.608Z,15.81
2023-05-09T17:14:37.364Z,15.70
2023-05-09T17:17:03.996Z,15.74
2023-05-09T17:19:30.724Z,15.69
2023-05-09T17:21:57.338Z,15.61
2023-05-09T17:24:24.349Z,15.56
2023-05-09T17:26:51.155Z,15.48
2023-05-09T17:29:17.833Z,15.43
2023-05-09T17:31:44.529Z,15.45
2023-05-09T17:34:11.432Z,15.41
2023-05-09T17:36:38.064Z,15.32
2023-05-09T17:39:04.959Z,15.19
2023-05-09T17:41:31.627Z,15.12
2023-05-09T17:43:58.298Z,15.02
2023-05-09T17:46:25.032Z,15.03
2023-05-09T17:48:51.934Z,14.95
2023-05-09T17:51:18.661Z,14.91
2023-05-09T17:53:45.315Z,14.88
2023-05-09T17:56:12.030Z,14.79
2023-05-09T17:58:38.836Z,14.69
2023-05-09T18:01:06.223Z,14.61
2023-05-09T18:03:33.093Z,14.45
2023-05-09T18:05:59.936Z,14.46
2023-05-09T18:08:26.600Z,14.40
2023-05-09T18:10:53.864Z,14.42
2023-05-09T18:13:21.267Z,14.34
2023-05-09T18:15:48.588Z,14.17
2023-05-09T18:18:15.247Z,14.13
2023-05-09T18:20:42.263Z,14.12
2023-05-09T18:23:09.204Z,13.98
2023-05-09T18:25:35.868Z,14.02
2023-05-09T18:28:16.791Z,14.04
2023-05-09T18:30:48.633Z,13.92
2023-05-09T18:33:15.562Z,13.89
2023-05-09T18:35:42.450Z,13.90
2023-05-09T18:38:09.226Z,13.91
2023-05-09T18:40:35.880Z,13.91
2023-05-09T18:43:05.421Z,13.90
2023-05-09T18:45:32.369Z,13.81
2023-05-09T18:47:59.455Z,13.85
2023-05-09T18:50:26.273Z,13.84
2023-05-09T18:52:53.018Z,13.87
2023-05-09T18:55:19.889Z,13.76
2023-05-09T18:57:46.613Z,13.70
2023-05-09T19:00:15.772Z,13.72
2023-05-09T19:02:42.863Z,13.67
2023-05-09T19:05:09.640Z,13.62
2023-05-09T19:07:36.874Z,13.60
2023-05-09T19:10:04.207Z,13.44
2023-05-09T19:12:31.827Z,13.34
2023-05-09T19:14:58.589Z,13.28
2023-05-09T19:17:25.432Z,13.34
2023-05-09T19:19:52.306Z,13.24
2023-05-09T19:22:19.203Z,13.20
2023-05-09T19:24:45.902Z,13.12
2023-05-09T19:27:12.558Z,13.10
2023-05-09T19:29:39.249Z,12.99
2023-05-09T19:32:06.014Z,12.97
2023-05-09T19:34:32.614Z,12.98
2023-05-09T19:36:59.286Z,12.95
2023-05-09T19:39:26.021Z,12.95
2023-05-09T19:41:56.163Z,12.93
2023-05-09T19:44:26.292Z,12.84
2023-05-09T19:46:53.134Z,12.87
2023-05-09T19:49:19.799Z,12.89
2023-05-09T19:51:46.597Z,12.93
2023-05-09T19:54:13.515Z,12.88
2023-05-09T19:56:42.819Z,12.79
2023-05-09T19:59:09.510Z,12.81
2023-05-09T20:01:36.242Z,12.84
2023-05-09T20:04:02.968Z,12.75
2023-05-09T20:06:29.830Z,12.78
2023-05-09T20:08:56.427Z,12.69
2023-05-09T20:11:23.414Z,12.69
2023-05-09T20:13:50.210Z,12.59
2023-05-09T20:16:16.897Z,12.47
2023-05-09T20:18:43.831Z,12.52
2023-05-09T20:21:10.826Z,12.50
2023-05-09T20:23:37.599Z,12.53
2023-05-09T20:26:04.232Z,12.49
2023-05-09T20:28:30.974Z,12.45
2023-05-09T20:30:58.120Z,12.43
2023-05-09T20:33:24.930Z,12.40
2023-05-09T20:35:51.527Z,12.20
2023-05-09T20:38:18.182Z,12.07
2023-05-09T20:40:45.124Z,12.08
2023-05-09T20:43:11.835Z,12.04
2023-05-09T20:45:38.714Z,12.05
2023-05-09T20:48:06.252Z,12.09
2023-05-09T20:50:33.051Z,12.01
2023-05-09T20:52:59.855Z,12.03
2023-05-09T20:55:29.441Z,12.01
2023-05-09T20:57:56.132Z,12.03
2023-05-09T21:00:22.927Z,11.89
2023-05-09T21:02:52.654Z,11.80
2023-05-09T21:05:19.879Z,11.77
2023-05-09T21:07:46.515Z,11.85
2023-05-09T21:10:13.701Z,11.83
2023-05-09T21:12:40.543Z,11.83
2023-05-09T21:15:08.159Z,11.75
2023-05-09T21:17:34.911Z,11.69
2023-05-09T21:20:01.711Z,11.69
2023-05-09T21:22:31.571Z,11.63
2023-05-09T21:24:58.261Z,11.59
2023-05-09T21:27:25.211Z,11.66
2023-05-09T21:29:55.884Z,11.61
2023-05-09T21:32:22.637Z,11.64
2023-05-09T21:34:49.315Z,11.77
2023-05-09T21:37:16.271Z,11.83
2023-05-09T21:39:42.952Z,11.82
2023-05-09T21:42:09.973Z,11.85
2023-05-09T21:44:39.451Z,11.92
2023-05-09T21:47:06.223Z,11.93
2023-05-09T21:49:33.021Z,11.97
2023-05-09T21:51:59.937Z,12.00
2023-05-09T21:54:26.666Z,11.95
2023-05-09T21:56:53.423Z,12.01
2023-05-09T21:59:22.039Z,12.06
2023-05-09T22:01:49.718Z,12.00
2023-05-09T22:04:16.438Z,11.98
2023-05-09T22:06:43.218Z,12.03
2023-05-09T22:09:11.208Z,12.08
2023-05-09T22:11:37.873Z,12.14
2023-05-09T22:14:04.748Z,12.05
2023-05-09T22:16:34.450Z,11.98
2023-05-09T22:19:01.215Z,12.08
2023-05-09T22:21:28.228Z,12.01
2023-05-09T22:23:54.915Z,12.09
2023-05-09T22:26:25.648Z,12.04
2023-05-09T22:28:52.468Z,12.10
2023-05-09T22:31:19.248Z,12.07
2023-05-09T22:33:46.224Z,12.04
2023-05-09T22:36:13.033Z,11.97
2023-05-09T22:38:39.960Z,11.98
2023-05-09T22:41:06.638Z,11.95
2023-05-09T22:43:38.800Z,11.95
2023-05-09T22:46:06.653Z,11.81
2023-05-09T22:48:33.559Z,11.83
2023-05-09T22:51:00.280Z,11.80
2023-05-09T22:53:26.887Z,11.81
2023-05-09T22:55:56.525Z,11.73
2023-05-09T22:58:23.210Z,11.71
2023-05-09T23:00:52.376Z,11.72
2023-05-09T23:03:19.257Z,11.63
2023-05-09T23:05:45.958Z,11.61
2023-05-09T23:08:12.700Z,11.61
2023-05-09T23:10:39.400Z,11.49
2023-05-09T23:13:06.128Z,11.48
2023-05-09T23:15:33.020Z,11.49
2023-05-09T23:17:59.745Z,11.44
2023-05-09T23:20:26.648Z,11.41
2023-05-09T23:22:56.255Z,11.29
2023-05-09T23:25:22.935Z,11.31
2023-05-09T23:27:54.510Z,11.33
2023-05-09T23:30:21.216Z,11.26
2023-05-09T23:32:47.949Z,11.33
2023-05-09T23:35:14.772Z,11.27
2023-05-09T23:37:41.517Z,11.29
2023-05-09T23:40:08.774Z,11.26
2023-05-09T23:42:37.791Z,11.29
2023-05-09T23:45:05.262Z,11.19
2023-05-09T23:47:32.099Z,11.18
2023-05-09T23:50:01.428Z,11.24
2023-05-09T23:52:28.087Z,11.22
2023-05-09T23:54:54.898Z,11.19
2023-05-09T23:57:21.619Z,11.20
2023-05-09T23:59:49.808Z,11.23
